Briefing drone pour Pineuilh

Rechercher une autre localisation

Conditions de vol :


Nous sommes le : Jeudi 17 juin 2021
Il est 22:26 UTC (00:26 LT)

Lever de soleil : 03:46 UTC (05:46 LT)
Coucher de soleil : 20:13 UTC (22:13 LT)


Warning: min(): Array must contain at least one element in /homepages/6/d509196549/htdocs/briefdrone/includes/function/metar/metar.php on line 1265

Météo

L'essentiel des conditions de vol

VIGILANCE MÉTÉO FRANCE - Gironde (33)
Vigilance Orange : Orages
CARTE TEMSI
CARTES DES FRONTS
METAR de LFBE
LFBE 162200Z AUTO 26013G39KT 210V290 9999 ///CB 25/18 Q1011

Date d'émission: 16/06/2021
Heure d'émission: 22:00 UTC
Vent: 260° (variable du 210° au 290°) pour 13 KT (24 km/h) rafales pour 39 KT (72 km/h)
Visibilité horizontale: > 10 km
Température: 25 °C
Point de rosée: 18 °C
Humidité: 65%
Pression (QNH): 1011 hPa
TAF de LFBE
LFBE 162000Z 1620/1712 CNL

Conditions prévues :

Heure d'émission : Bulletin éffectué le 16 à 20:00 UTC
Prévision : Valide du 16 a 20:00 UTC au 17 a 12:00 UTC
Nuages : à 0ft (0 m)
WEBCAM POUR PINEUILH

Réglementation

Voler en sécurité

CARTES AERONAUTIQUE 1/500.000
CARTES VAC (LFBE)
SUP AIP




Chargement des AIP...
NOTAM (PINEUILH + Terrain à proximité / FIR )




Chargement des NOTAMS...
CONTACT PREFECTURE 33


Avertissement : Les données mises à disposition sont indicatives. Oxygène Drone ne pourra être tenu responsable de dégâts causés aux biens et aux personnes.